Time;durP1;ratioP1;P1;durP2;ratioP2;P2;SDS_P1;SDS_P2;PMS_P1;PMS_P2;Temp;Humidity;BMP_temperature;BMP_pressure;BME280_temperature;BME280_humidity;BME280_pressure;Samples;Min_cycle;Max_cycle;Signal;HPM_P1;HPM_P2
2020/12/22 00:02:12;;;;;;;8.77;7.07;;;6.00;99.90;;;;;;5109112;28;20210;-78
2020/12/22 00:04:38;;;;;;;7.93;7.13;;;6.00;99.90;;;;;;5108713;28;20202;-78
2020/12/22 00:07:06;;;;;;;8.53;7.70;;;6.00;99.90;;;;;;5108468;27;20222;-78
2020/12/22 00:09:32;;;;;;;7.87;7.07;;;6.10;99.90;;;;;;5107893;28;20204;-78
2020/12/22 00:11:59;;;;;;;8.53;7.63;;;6.00;99.90;;;;;;5108157;28;20206;-78
2020/12/22 00:14:25;;;;;;;9.93;7.37;;;6.10;99.90;;;;;;5108375;28;20198;-78
2020/12/22 00:16:51;;;;;;;8.57;7.77;;;6.10;99.90;;;;;;5107722;28;20240;-78
2020/12/22 00:19:18;;;;;;;8.33;7.27;;;6.10;99.90;;;;;;5107945;28;20206;-79
2020/12/22 00:21:44;;;;;;;8.53;7.60;;;6.10;99.90;;;;;;5108021;28;20296;-79
2020/12/22 00:24:11;;;;;;;8.53;7.73;;;6.10;99.90;;;;;;5107689;28;20305;-79
2020/12/22 00:26:38;;;;;;;8.43;7.63;;;6.10;99.90;;;;;;5107809;28;20204;-79
2020/12/22 00:29:04;;;;;;;9.80;7.67;;;6.10;99.90;;;;;;5107321;28;20254;-78
2020/12/22 00:31:35;;;;;;;8.90;7.77;;;6.10;99.90;;;;;;5107774;28;20331;-81
2020/12/22 00:34:02;;;;;;;9.00;7.53;;;6.10;99.90;;;;;;5107735;28;20217;-78
2020/12/22 00:36:28;;;;;;;9.47;8.43;;;6.10;99.90;;;;;;5107655;28;20232;-80
2020/12/22 00:38:55;;;;;;;8.63;7.73;;;6.10;99.90;;;;;;5107677;28;20210;-79
2020/12/22 00:41:22;;;;;;;9.57;7.63;;;6.10;99.90;;;;;;5108222;28;20201;-79
2020/12/22 00:43:48;;;;;;;10.07;8.30;;;6.20;99.90;;;;;;5107750;28;20690;-79
2020/12/22 00:46:16;;;;;;;9.83;7.87;;;6.10;99.90;;;;;;5107381;28;20283;-79
2020/12/22 00:48:45;;;;;;;9.50;7.67;;;6.10;99.90;;;;;;5107653;28;20248;-79
2020/12/22 00:51:13;;;;;;;9.30;8.40;;;6.20;99.90;;;;;;5107250;28;20694;-79
2020/12/22 00:53:41;;;;;;;9.93;8.17;;;6.20;99.90;;;;;;5107372;28;20333;-79
2020/12/22 00:56:11;;;;;;;10.03;8.23;;;6.20;99.90;;;;;;5107445;28;20735;-79
2020/12/22 00:58:38;;;;;;;10.10;8.27;;;6.20;99.90;;;;;;5107248;28;20205;-79
2020/12/22 01:01:05;;;;;;;12.30;8.43;;;6.20;99.90;;;;;;5102273;28;20289;-79
2020/12/22 01:03:32;;;;;;;8.90;7.97;;;6.20;99.90;;;;;;5096631;28;20615;-79
2020/12/22 01:05:58;;;;;;;8.50;7.67;;;6.20;99.90;;;;;;5093303;28;20217;-79
2020/12/22 01:08:24;;;;;;;9.80;8.27;;;6.20;99.90;;;;;;5107251;28;20613;-79
2020/12/22 01:10:51;;;;;;;8.93;8.03;;;6.20;99.90;;;;;;5106818;28;20207;-78
2020/12/22 01:13:17;;;;;;;8.83;7.93;;;6.30;99.90;;;;;;5107157;28;20206;-79
2020/12/22 01:15:45;;;;;;;8.97;8.07;;;6.30;99.90;;;;;;5106766;28;20289;-81
2020/12/22 01:18:11;;;;;;;10.70;8.50;;;6.30;99.90;;;;;;5107744;28;20206;-79
2020/12/22 01:20:37;;;;;;;8.77;7.83;;;6.30;99.90;;;;;;5107542;28;20262;-79
2020/12/22 01:23:04;;;;;;;9.20;8.23;;;6.40;99.90;;;;;;5107631;28;20320;-79
2020/12/22 01:25:30;;;;;;;8.80;7.90;;;6.40;99.90;;;;;;5107093;28;20251;-79
2020/12/22 01:27:57;;;;;;;8.53;7.40;;;6.40;99.90;;;;;;5099352;28;20313;-79
2020/12/22 01:30:23;;;;;;;8.33;7.50;;;6.50;99.90;;;;;;5097630;27;20293;-78
2020/12/22 01:32:51;;;;;;;8.10;7.30;;;6.50;99.90;;;;;;5091730;28;20201;-75
2020/12/22 01:35:17;;;;;;;8.87;7.07;;;6.50;99.90;;;;;;5108470;28;20248;-75
2020/12/22 01:37:44;;;;;;;8.50;7.60;;;6.60;99.90;;;;;;5108368;28;20250;-75
2020/12/22 01:40:10;;;;;;;8.00;7.20;;;6.60;99.90;;;;;;5108326;28;20238;-75
2020/12/22 01:42:42;;;;;;;10.47;7.17;;;6.60;99.90;;;;;;5108467;28;20343;-75
2020/12/22 01:45:09;;;;;;;8.13;7.30;;;6.70;99.90;;;;;;5108427;28;20556;-74
2020/12/22 01:47:35;;;;;;;7.97;7.20;;;6.70;99.90;;;;;;5108311;28;20208;-73
2020/12/22 01:50:03;;;;;;;7.80;7.00;;;6.70;99.90;;;;;;5102007;28;20215;-73
2020/12/22 01:52:29;;;;;;;7.87;7.10;;;6.70;99.90;;;;;;5088075;28;20297;-74
2020/12/22 01:54:56;;;;;;;8.30;7.50;;;6.80;99.90;;;;;;5087764;28;20238;-74
2020/12/22 01:57:22;;;;;;;8.90;7.77;;;6.70;99.90;;;;;;5088123;28;21057;-74
2020/12/22 01:59:48;;;;;;;8.13;7.30;;;6.80;99.90;;;;;;5087792;28;20293;-74
2020/12/22 02:02:15;;;;;;;8.47;7.57;;;6.80;99.90;;;;;;5087904;28;20620;-74
2020/12/22 02:04:41;;;;;;;7.93;7.13;;;6.80;99.90;;;;;;5088086;28;20206;-74
2020/12/22 02:07:12;;;;;;;8.13;7.43;;;6.80;99.90;;;;;;5088138;28;20203;-74
2020/12/22 02:09:40;;;;;;;9.70;7.80;;;6.80;99.90;;;;;;5087762;28;20187;-74
2020/12/22 02:12:06;;;;;;;8.93;7.83;;;6.80;99.90;;;;;;5087736;28;20570;-74
2020/12/22 02:14:33;;;;;;;9.43;7.60;;;6.70;99.90;;;;;;5088164;28;20344;-76
2020/12/22 02:16:59;;;;;;;8.80;7.90;;;6.80;99.90;;;;;;5088028;28;20231;-76
2020/12/22 02:19:26;;;;;;;9.40;7.93;;;6.80;99.90;;;;;;5088230;28;20213;-76
2020/12/22 02:21:53;;;;;;;9.50;8.60;;;6.70;99.90;;;;;;5087828;28;20293;-76
2020/12/22 02:24:20;;;;;;;8.70;7.60;;;6.70;99.90;;;;;;5088019;28;20571;-76
2020/12/22 02:26:46;;;;;;;10.37;8.43;;;6.70;99.90;;;;;;5088161;28;20211;-76
2020/12/22 02:29:12;;;;;;;9.47;8.47;;;6.70;99.90;;;;;;5090257;28;20226;-76
2020/12/22 02:31:39;;;;;;;8.97;8.03;;;6.70;99.90;;;;;;5091928;28;20213;-76
2020/12/22 02:34:05;;;;;;;9.53;8.00;;;6.70;99.90;;;;;;5091939;28;20209;-76
2020/12/22 02:36:33;;;;;;;9.60;8.63;;;6.70;99.90;;;;;;5091818;28;20658;-76
2020/12/22 02:39:01;;;;;;;8.50;7.70;;;6.70;99.90;;;;;;5091413;28;20206;-76
2020/12/22 02:41:27;;;;;;;9.10;8.20;;;6.70;99.90;;;;;;5091304;28;20207;-76
2020/12/22 02:43:54;;;;;;;9.43;8.40;;;6.70;99.90;;;;;;5091350;28;20286;-76
2020/12/22 02:46:21;;;;;;;9.63;8.67;;;6.70;99.90;;;;;;5091711;28;20222;-76
2020/12/22 02:48:47;;;;;;;9.77;8.17;;;6.70;99.90;;;;;;5091675;28;20210;-76
2020/12/22 02:51:14;;;;;;;10.03;8.83;;;6.70;99.90;;;;;;5091089;28;20622;-76
2020/12/22 02:53:40;;;;;;;10.17;9.13;;;6.70;99.90;;;;;;5091020;28;20237;-76
2020/12/22 02:56:09;;;;;;;10.83;8.90;;;6.70;99.90;;;;;;5091307;28;20939;-76
2020/12/22 02:58:35;;;;;;;10.53;9.43;;;6.70;99.90;;;;;;5091524;28;20288;-76
2020/12/22 03:01:01;;;;;;;12.77;9.97;;;6.70;99.90;;;;;;5091445;28;20233;-76
2020/12/22 03:03:28;;;;;;;10.53;9.23;;;6.70;99.90;;;;;;5091110;28;20669;-76
2020/12/22 03:05:54;;;;;;;13.43;10.13;;;6.60;99.90;;;;;;5091126;28;20996;-76
2020/12/22 03:08:21;;;;;;;13.30;9.97;;;6.60;99.90;;;;;;5091226;28;20664;-76
2020/12/22 03:10:47;;;;;;;13.37;10.10;;;6.60;99.90;;;;;;5091342;28;20199;-76
2020/12/22 03:13:14;;;;;;;11.13;9.57;;;6.60;99.90;;;;;;5091271;28;20588;-76
2020/12/22 03:15:41;;;;;;;14.80;10.20;;;6.60;99.90;;;;;;5090710;28;20673;-75
2020/12/22 03:18:07;;;;;;;13.80;11.13;;;6.60;99.90;;;;;;5090642;28;20397;-75
2020/12/22 03:20:33;;;;;;;14.70;10.80;;;6.60;99.90;;;;;;5090720;28;20602;-76
2020/12/22 03:23:00;;;;;;;14.10;11.13;;;6.50;99.90;;;;;;5090553;28;20673;-75
2020/12/22 03:25:26;;;;;;;16.20;12.17;;;6.50;99.90;;;;;;5091403;28;20211;-75
2020/12/22 03:27:52;;;;;;;13.83;10.97;;;6.50;99.90;;;;;;5092563;28;20238;-75
2020/12/22 03:30:20;;;;;;;16.40;11.57;;;6.50;99.90;;;;;;5090920;28;20302;-76
2020/12/22 03:32:46;;;;;;;13.87;10.83;;;6.50;99.90;;;;;;5090840;28;20206;-76
2020/12/22 03:35:13;;;;;;;15.60;11.73;;;6.50;99.90;;;;;;5089978;28;20683;-75
2020/12/22 03:37:40;;;;;;;15.07;10.97;;;6.50;99.90;;;;;;5090380;28;20705;-76
2020/12/22 03:40:09;;;;;;;14.43;11.37;;;6.50;99.90;;;;;;5089766;28;21048;-75
2020/12/22 03:42:35;;;;;;;16.83;12.03;;;6.50;99.90;;;;;;5090431;28;20242;-75
2020/12/22 03:45:02;;;;;;;14.07;11.70;;;6.50;99.90;;;;;;5090218;28;20207;-75
2020/12/22 03:47:29;;;;;;;16.10;11.77;;;6.50;99.90;;;;;;5090523;28;20211;-74
2020/12/22 03:49:55;;;;;;;17.97;11.60;;;6.50;99.90;;;;;;5090292;28;20234;-75
2020/12/22 03:52:22;;;;;;;14.47;11.20;;;6.50;99.90;;;;;;5090175;28;20267;-74
2020/12/22 03:54:48;;;;;;;15.27;11.20;;;6.50;99.90;;;;;;5090028;28;20238;-75
2020/12/22 03:57:15;;;;;;;16.03;11.27;;;6.60;99.90;;;;;;5090022;28;20234;-75
2020/12/22 03:59:42;;;;;;;18.00;11.27;;;6.50;99.90;;;;;;5089381;28;20676;-75
2020/12/22 04:02:09;;;;;;;17.30;11.47;;;6.50;99.90;;;;;;5089761;28;20675;-75
2020/12/22 04:04:36;;;;;;;14.77;10.87;;;6.50;99.90;;;;;;5090112;28;20207;-74
2020/12/22 04:07:03;;;;;;;16.83;11.20;;;6.60;99.90;;;;;;5089787;28;20290;-74
2020/12/22 04:09:29;;;;;;;18.43;11.33;;;6.60;99.90;;;;;;5089857;28;20260;-74
2020/12/22 04:11:56;;;;;;;14.30;10.87;;;6.60;99.90;;;;;;5089539;28;20199;-74
2020/12/22 04:14:22;;;;;;;14.33;10.20;;;6.60;99.90;;;;;;5089738;28;20206;-75
2020/12/22 04:16:49;;;;;;;12.17;9.97;;;6.60;99.90;;;;;;5089302;28;20231;-75
2020/12/22 04:19:16;;;;;;;17.80;10.30;;;6.60;99.90;;;;;;5088899;28;20301;-75
2020/12/22 04:21:43;;;;;;;15.30;10.77;;;6.70;99.90;;;;;;5089575;28;20215;-75
2020/12/22 04:24:09;;;;;;;12.97;10.07;;;6.60;99.90;;;;;;5089465;28;20673;-74
2020/12/22 04:26:36;;;;;;;14.20;10.10;;;6.60;99.90;;;;;;5089416;28;20205;-75
2020/12/22 04:29:03;;;;;;;12.63;9.90;;;6.60;99.90;;;;;;5089712;28;20234;-75
2020/12/22 04:31:29;;;;;;;14.07;10.77;;;6.70;99.90;;;;;;5089822;28;20210;-75
2020/12/22 04:33:57;;;;;;;14.57;11.07;;;6.60;99.90;;;;;;5089503;28;20570;-75
2020/12/22 04:36:24;;;;;;;14.40;10.97;;;6.70;99.90;;;;;;5089248;28;20226;-76
2020/12/22 04:38:53;;;;;;;14.60;10.57;;;6.60;99.90;;;;;;5089468;28;20209;-76
2020/12/22 04:41:21;;;;;;;14.53;9.90;;;6.60;99.90;;;;;;5088897;28;20661;-76
2020/12/22 04:43:49;;;;;;;15.30;10.47;;;6.70;99.90;;;;;;5089469;28;20240;-76
2020/12/22 04:46:19;;;;;;;18.07;11.40;;;6.70;99.90;;;;;;5089226;28;20377;-76
2020/12/22 04:48:51;;;;;;;15.60;10.80;;;6.70;99.90;;;;;;5089286;28;20210;-75
2020/12/22 04:51:19;;;;;;;15.53;10.57;;;6.70;99.90;;;;;;5088486;28;20198;-75
2020/12/22 04:53:45;;;;;;;14.27;10.80;;;6.80;99.90;;;;;;5088876;28;20245;-76
2020/12/22 04:56:13;;;;;;;15.70;11.13;;;6.80;99.90;;;;;;5088988;28;20301;-76
2020/12/22 04:58:40;;;;;;;14.63;11.07;;;6.80;99.90;;;;;;5088917;28;20213;-76
2020/12/22 05:01:07;;;;;;;13.93;10.80;;;6.80;99.90;;;;;;5088985;28;20210;-76
2020/12/22 05:03:33;;;;;;;14.40;10.33;;;6.80;99.90;;;;;;5088602;28;20228;-75
2020/12/22 05:06:00;;;;;;;17.17;11.23;;;6.80;99.90;;;;;;5088901;28;20209;-75
2020/12/22 05:08:26;;;;;;;14.10;10.80;;;6.80;99.90;;;;;;5088846;28;20214;-75
2020/12/22 05:10:53;;;;;;;13.77;10.43;;;6.80;99.90;;;;;;5088808;28;20207;-75
2020/12/22 05:13:21;;;;;;;14.73;10.77;;;6.80;99.90;;;;;;5088397;28;20202;-75
2020/12/22 05:15:49;;;;;;;17.03;11.07;;;6.80;99.90;;;;;;5088653;28;20206;-75
2020/12/22 05:18:16;;;;;;;14.50;10.93;;;6.80;99.90;;;;;;5088695;28;20230;-78
2020/12/22 05:20:44;;;;;;;16.17;11.33;;;6.80;99.90;;;;;;5088899;28;20298;-77
2020/12/22 05:23:14;;;;;;;16.30;10.93;;;6.80;99.90;;;;;;5088364;28;20673;-78
2020/12/22 05:25:42;;;;;;;14.90;10.43;;;6.80;99.90;;;;;;5088675;28;20215;-78
2020/12/22 05:28:08;;;;;;;16.40;10.97;;;6.90;99.90;;;;;;5088645;28;20330;-78
2020/12/22 05:30:38;;;;;;;19.37;11.63;;;6.80;99.90;;;;;;5088483;28;20203;-77
2020/12/22 05:33:05;;;;;;;18.50;11.73;;;6.90;99.90;;;;;;5088131;28;20210;-76
2020/12/22 05:35:38;;;;;;;15.23;11.07;;;6.90;99.90;;;;;;5088326;28;20687;-75
2020/12/22 05:38:05;;;;;;;16.03;10.30;;;6.80;99.90;;;;;;5088419;28;20223;-75
2020/12/22 05:40:32;;;;;;;13.83;9.80;;;6.80;99.90;;;;;;5088532;28;20234;-75
2020/12/22 05:42:59;;;;;;;14.53;9.87;;;6.90;99.90;;;;;;5088295;28;20669;-75
2020/12/22 05:45:31;;;;;;;15.50;10.63;;;6.90;99.90;;;;;;5088541;28;20209;-76
2020/12/22 05:47:58;;;;;;;13.80;9.93;;;6.90;99.90;;;;;;5088118;28;20202;-75
2020/12/22 05:50:24;;;;;;;14.20;10.10;;;6.90;99.90;;;;;;5088653;28;20226;-77
2020/12/22 05:52:53;;;;;;;13.40;9.77;;;6.90;99.90;;;;;;5088529;28;20203;-76
2020/12/22 05:55:28;;;;;;;13.53;9.97;;;6.90;99.90;;;;;;5088186;28;20202;-76
2020/12/22 05:58:09;;;;;;;12.00;9.57;;;7.00;99.90;;;;;;5087907;28;20779;-76
2020/12/22 06:00:37;;;;;;;13.00;9.23;;;7.00;99.90;;;;;;5088109;28;20626;-76
2020/12/22 06:03:09;;;;;;;12.83;9.67;;;7.00;99.90;;;;;;5090140;28;20207;-75
2020/12/22 06:05:37;;;;;;;15.33;9.63;;;7.00;99.90;;;;;;5092008;28;20738;-75
2020/12/22 06:08:08;;;;;;;13.10;10.47;;;7.00;99.90;;;;;;5092112;28;20683;-74
2020/12/22 06:10:36;;;;;;;14.03;10.00;;;7.00;99.90;;;;;;5092220;28;20628;-74
2020/12/22 06:13:04;;;;;;;15.70;9.43;;;7.00;99.90;;;;;;5092050;28;20210;-74
2020/12/22 06:15:31;;;;;;;14.23;9.83;;;7.00;99.90;;;;;;5092192;28;20233;-74
2020/12/22 06:17:58;;;;;;;12.70;9.10;;;7.10;99.90;;;;;;5091854;28;20238;-74
2020/12/22 06:20:27;;;;;;;11.47;9.10;;;7.10;99.90;;;;;;5092137;28;20229;-75
2020/12/22 06:23:01;;;;;;;12.90;9.20;;;7.20;99.90;;;;;;5091995;28;20209;-75
2020/12/22 06:25:27;;;;;;;11.60;8.93;;;7.20;99.90;;;;;;5092120;28;20594;-75
2020/12/22 06:27:53;;;;;;;11.43;8.63;;;7.30;99.90;;;;;;5091903;28;20248;-75
2020/12/22 06:30:32;;;;;;;11.73;8.67;;;7.30;99.90;;;;;;5091664;28;20229;-76
2020/12/22 06:33:16;;;;;;;11.10;8.93;;;7.40;99.90;;;;;;5091560;28;20668;-77
2020/12/22 06:35:59;;;;;;;12.67;9.17;;;7.60;99.90;;;;;;5091890;28;20267;-76
2020/12/22 06:38:43;;;;;;;10.63;8.40;;;7.70;99.90;;;;;;5091542;28;20218;-75
2020/12/22 06:41:10;;;;;;;11.23;7.87;;;7.70;99.90;;;;;;5091348;28;20190;-75
2020/12/22 06:43:41;;;;;;;10.07;7.70;;;7.60;99.90;;;;;;5091601;28;20238;-75
2020/12/22 06:46:09;;;;;;;10.67;8.53;;;8.00;99.90;;;;;;5091079;28;20673;-75
2020/12/22 06:48:46;;;;;;;9.17;7.80;;;8.00;99.90;;;;;;5091318;28;20226;-75
2020/12/22 06:51:23;;;;;;;8.47;7.00;;;8.00;99.90;;;;;;5091268;28;20580;-74
2020/12/22 06:53:49;;;;;;;7.07;6.23;;;8.10;99.90;;;;;;5091250;28;20633;-75
2020/12/22 06:56:39;;;;;;;6.30;5.70;;;8.10;99.90;;;;;;5091415;28;20207;-75
2020/12/22 06:59:06;;;;;;;6.27;5.67;;;8.10;99.90;;;;;;5091195;28;20673;-75
2020/12/22 07:01:34;;;;;;;6.30;5.23;;;8.20;99.90;;;;;;5091289;28;20253;-75
2020/12/22 07:04:27;;;;;;;5.57;5.07;;;8.40;99.90;;;;;;5091288;28;20709;-76
2020/12/22 07:06:58;;;;;;;5.43;4.97;;;8.30;99.90;;;;;;5091126;28;20195;-76
2020/12/22 07:09:26;;;;;;;5.23;4.57;;;8.40;99.90;;;;;;5090927;28;20282;-76
2020/12/22 07:11:54;;;;;;;4.77;4.30;;;8.40;99.90;;;;;;5091115;28;20210;-76
2020/12/22 07:14:23;;;;;;;5.43;4.93;;;8.50;99.90;;;;;;5090557;28;20206;-76
2020/12/22 07:16:54;;;;;;;4.40;4.00;;;8.50;99.90;;;;;;5090851;28;20231;-76
2020/12/22 07:19:28;;;;;;;4.13;3.70;;;8.40;99.90;;;;;;5091008;28;20191;-75
2020/12/22 07:21:57;;;;;;;4.63;4.23;;;8.50;99.90;;;;;;5091173;28;20606;-75
2020/12/22 07:24:25;;;;;;;3.90;3.60;;;8.50;99.90;;;;;;5090868;28;20209;-75
2020/12/22 07:26:51;;;;;;;3.90;3.50;;;8.50;99.90;;;;;;5090755;28;20221;-75
2020/12/22 07:29:18;;;;;;;3.60;3.40;;;8.50;99.90;;;;;;5090439;28;20684;-75
2020/12/22 07:31:45;;;;;;;3.13;2.93;;;8.60;99.90;;;;;;5090935;28;20203;-75
2020/12/22 07:34:12;;;;;;;3.43;3.13;;;8.60;99.90;;;;;;5090459;28;20685;-76
2020/12/22 07:36:39;;;;;;;3.73;3.43;;;8.70;99.90;;;;;;5090440;28;20233;-76
2020/12/22 07:39:18;;;;;;;3.03;2.83;;;8.70;99.90;;;;;;5090391;28;20576;-76
2020/12/22 07:41:45;;;;;;;3.20;3.00;;;8.60;99.90;;;;;;5090379;28;20298;-75
2020/12/22 07:44:13;;;;;;;3.00;2.80;;;8.70;99.90;;;;;;5090392;28;20199;-75
2020/12/22 07:46:41;;;;;;;2.83;2.57;;;8.70;99.90;;;;;;5090470;28;20206;-74
2020/12/22 07:49:10;;;;;;;2.70;2.50;;;8.70;99.90;;;;;;5090285;28;20206;-76
2020/12/22 07:51:41;;;;;;;2.40;2.30;;;8.80;99.90;;;;;;5090394;28;20645;-75
2020/12/22 07:54:08;;;;;;;2.67;2.47;;;8.90;99.90;;;;;;5089614;28;20552;-76
2020/12/22 07:56:36;;;;;;;2.50;2.30;;;8.90;99.90;;;;;;5090175;28;20362;-76
2020/12/22 07:59:04;;;;;;;2.80;2.60;;;8.90;99.90;;;;;;5090379;28;20302;-76
2020/12/22 08:01:41;;;;;;;2.33;2.17;;;8.90;99.90;;;;;;5090310;28;20209;-76
2020/12/22 08:04:18;;;;;;;1.87;1.77;;;8.90;99.90;;;;;;5089940;28;20194;-74
2020/12/22 08:06:57;;;;;;;2.20;2.00;;;9.00;99.90;;;;;;5089559;28;20301;-74
2020/12/22 08:09:28;;;;;;;1.83;1.73;;;9.10;99.90;;;;;;5090017;28;20197;-73
2020/12/22 08:11:57;;;;;;;1.97;1.77;;;9.10;99.90;;;;;;5089671;28;20299;-74
2020/12/22 08:14:25;;;;;;;1.70;1.60;;;9.20;99.90;;;;;;5089931;28;20207;-74
2020/12/22 08:16:55;;;;;;;3.00;2.70;;;9.20;99.90;;;;;;5089471;28;20230;-74
2020/12/22 08:19:23;;;;;;;1.83;1.73;;;9.30;99.90;;;;;;5089786;28;20198;-74
2020/12/22 08:21:49;;;;;;;1.47;1.43;;;9.30;99.90;;;;;;5089903;28;20308;-75
2020/12/22 08:24:18;;;;;;;1.13;1.13;;;9.30;99.90;;;;;;5089763;28;20247;-75
2020/12/22 08:26:47;;;;;;;1.33;1.30;;;9.30;99.90;;;;;;5088486;28;20210;-75
2020/12/22 08:29:15;;;;;;;1.30;1.17;;;9.50;99.90;;;;;;5089554;28;20247;-75
2020/12/22 08:31:43;;;;;;;1.20;1.20;;;9.50;99.90;;;;;;5089615;28;20211;-75
2020/12/22 08:34:10;;;;;;;1.30;1.13;;;9.50;99.90;;;;;;5089377;28;20206;-75
2020/12/22 08:36:37;;;;;;;0.90;0.90;;;9.50;99.90;;;;;;5089598;28;20241;-75
2020/12/22 08:39:15;;;;;;;1.33;1.10;;;9.60;99.90;;;;;;5088980;28;20684;-75
2020/12/22 08:41:42;;;;;;;0.90;0.90;;;9.70;99.90;;;;;;5089309;28;20214;-76
2020/12/22 08:44:10;;;;;;;1.43;0.90;;;9.70;99.90;;;;;;5091854;28;20209;-77
2020/12/22 08:46:39;;;;;;;1.27;1.00;;;9.70;99.90;;;;;;5095282;28;20552;-78
2020/12/22 08:49:10;;;;;;;0.70;0.70;;;9.70;99.90;;;;;;5096169;28;20201;-78
2020/12/22 08:51:36;;;;;;;0.67;0.67;;;9.70;99.90;;;;;;5103976;28;20286;-78
2020/12/22 08:54:03;;;;;;;0.80;0.80;;;9.60;99.90;;;;;;5101838;28;20640;-77
2020/12/22 08:56:30;;;;;;;0.80;0.80;;;9.80;99.90;;;;;;5102522;28;20614;-76
2020/12/22 08:58:58;;;;;;;0.63;0.63;;;9.80;99.90;;;;;;5100453;28;20194;-76
2020/12/22 09:01:27;;;;;;;0.60;0.60;;;9.80;99.90;;;;;;5100608;28;20198;-77
2020/12/22 09:04:01;;;;;;;0.57;0.57;;;9.80;99.90;;;;;;5097041;28;20226;-76
2020/12/22 09:06:41;;;;;;;1.53;0.70;;;9.90;99.90;;;;;;5088877;28;20289;-76
2020/12/22 09:09:10;;;;;;;0.80;0.80;;;9.90;99.90;;;;;;5089320;28;20303;-76
2020/12/22 09:11:37;;;;;;;0.50;0.50;;;10.00;99.90;;;;;;5096851;28;20202;-76
2020/12/22 09:14:06;;;;;;;0.60;0.60;;;10.00;99.90;;;;;;5107385;28;20202;-77
2020/12/22 09:16:52;;;;;;;0.83;0.60;;;10.00;99.90;;;;;;5098416;28;20299;-77
2020/12/22 09:19:21;;;;;;;0.40;0.40;;;10.00;99.90;;;;;;5086754;28;20661;-77
2020/12/22 09:21:56;;;;;;;0.50;0.50;;;9.90;99.90;;;;;;5092344;28;20704;-77
2020/12/22 09:24:22;;;;;;;0.47;0.47;;;10.10;99.90;;;;;;5097418;28;20198;-76
2020/12/22 09:26:53;;;;;;;1.23;1.23;;;10.10;99.90;;;;;;5086382;28;20218;-76
2020/12/22 09:29:20;;;;;;;0.97;0.83;;;10.10;99.90;;;;;;5086609;28;20210;-77
2020/12/22 09:31:46;;;;;;;0.93;0.93;;;10.10;99.90;;;;;;5086364;28;20293;-77
2020/12/22 09:34:12;;;;;;;10.03;9.20;;;10.10;99.90;;;;;;5093634;28;20218;-76
2020/12/22 09:36:40;;;;;;;52.77;48.27;;;10.30;99.90;;;;;;5096500;28;20516;-77
2020/12/22 09:39:06;;;;;;;1.43;1.33;;;10.40;99.90;;;;;;5095628;28;20203;-77
2020/12/22 09:41:33;;;;;;;0.67;0.67;;;10.40;99.90;;;;;;5095594;28;20578;-77
2020/12/22 09:43:59;;;;;;;0.73;0.73;;;10.50;99.90;;;;;;5099640;28;20202;-81
2020/12/22 09:46:25;;;;;;;0.60;0.60;;;10.70;99.90;;;;;;5106633;28;20209;-77
2020/12/22 09:48:52;;;;;;;0.57;0.57;;;10.60;99.90;;;;;;5106500;28;20233;-77
2020/12/22 09:51:18;;;;;;;0.57;0.57;;;10.70;99.90;;;;;;5105973;28;20233;-77
2020/12/22 09:53:45;;;;;;;0.63;0.63;;;10.70;99.90;;;;;;5102512;28;20730;-76
2020/12/22 09:56:12;;;;;;;0.50;0.50;;;10.80;99.90;;;;;;5087561;28;20206;-77
2020/12/22 09:58:38;;;;;;;0.30;0.30;;;10.80;99.90;;;;;;5105781;28;20299;-77
2020/12/22 10:01:04;;;;;;;0.53;0.53;;;10.90;99.90;;;;;;5106101;28;20190;-76
2020/12/22 10:03:31;;;;;;;1.80;0.50;;;10.90;99.90;;;;;;5105076;28;20285;-76
2020/12/22 10:05:57;;;;;;;0.70;0.70;;;11.10;99.90;;;;;;5105777;28;20205;-77
2020/12/22 10:08:24;;;;;;;0.50;0.50;;;11.20;99.90;;;;;;5106262;28;20210;-76
2020/12/22 10:10:51;;;;;;;0.63;0.37;;;11.30;99.90;;;;;;5106198;28;20224;-76
2020/12/22 10:13:17;;;;;;;1.47;0.50;;;11.20;99.90;;;;;;5105800;28;20502;-76
2020/12/22 10:15:44;;;;;;;0.83;0.50;;;11.20;99.90;;;;;;5106021;28;20206;-77
2020/12/22 10:18:10;;;;;;;1.03;0.90;;;11.30;99.90;;;;;;5105947;28;20271;-77
2020/12/22 10:20:36;;;;;;;1.03;1.03;;;11.30;99.90;;;;;;5105857;28;20259;-77
2020/12/22 10:23:03;;;;;;;0.60;0.60;;;11.20;99.90;;;;;;5106030;28;20211;-80
2020/12/22 10:25:29;;;;;;;0.30;0.30;;;11.20;99.90;;;;;;5105741;28;20202;-80
2020/12/22 10:27:57;;;;;;;0.40;0.40;;;11.20;99.90;;;;;;5106086;28;20602;-81
2020/12/22 10:30:23;;;;;;;0.50;0.50;;;11.30;99.90;;;;;;5106547;28;20305;-81
2020/12/22 10:32:50;;;;;;;0.30;0.30;;;11.20;99.90;;;;;;5106177;28;20216;-80
2020/12/22 10:35:16;;;;;;;0.47;0.47;;;11.30;99.90;;;;;;5106081;28;20217;-80
2020/12/22 10:37:42;;;;;;;3.33;3.13;;;11.30;99.90;;;;;;5099845;28;20234;-81
2020/12/22 10:40:09;;;;;;;0.77;0.77;;;11.30;99.90;;;;;;5096770;28;20676;-81
2020/12/22 10:42:35;;;;;;;1.00;1.00;;;11.40;99.90;;;;;;5095430;28;21064;-81
2020/12/22 10:45:03;;;;;;;1.20;0.60;;;11.40;99.90;;;;;;5097006;28;20568;-80
2020/12/22 10:47:30;;;;;;;0.67;0.67;;;11.40;99.90;;;;;;5094886;28;20670;-80
2020/12/22 10:49:56;;;;;;;0.70;0.70;;;11.40;99.90;;;;;;5097320;28;20226;-80
2020/12/22 10:52:23;;;;;;;1.60;1.47;;;11.40;99.90;;;;;;5099822;28;20210;-80
2020/12/22 10:54:49;;;;;;;1.37;1.27;;;11.40;99.90;;;;;;5103566;28;20325;-79
2020/12/22 10:57:15;;;;;;;0.70;0.70;;;11.40;99.90;;;;;;5096226;27;20240;-80
2020/12/22 10:59:42;;;;;;;0.90;0.60;;;11.50;99.90;;;;;;5104451;28;20681;-80
2020/12/22 11:02:09;;;;;;;0.53;0.53;;;11.50;99.90;;;;;;5101561;28;20205;-80
2020/12/22 11:04:36;;;;;;;0.80;0.80;;;11.60;99.90;;;;;;5095859;28;20295;-80
2020/12/22 11:07:07;;;;;;;0.80;0.80;;;11.60;99.90;;;;;;5098292;28;20680;-80
2020/12/22 11:09:33;;;;;;;1.40;0.60;;;11.60;99.90;;;;;;5098258;28;20191;-81
2020/12/22 11:12:00;;;;;;;1.67;0.50;;;11.70;99.90;;;;;;5098473;28;20289;-80
2020/12/22 11:14:26;;;;;;;0.60;0.60;;;11.70;99.90;;;;;;5089249;28;20625;-80
2020/12/22 11:16:54;;;;;;;0.73;0.73;;;11.70;99.90;;;;;;5100558;28;20644;-80
2020/12/22 11:19:21;;;;;;;0.70;0.70;;;11.70;99.90;;;;;;5100207;28;20574;-80
2020/12/22 11:21:49;;;;;;;0.60;0.60;;;11.70;99.90;;;;;;5096157;28;20226;-81
2020/12/22 11:24:17;;;;;;;3.00;2.90;;;11.80;99.90;;;;;;5102754;28;20294;-80
2020/12/22 11:26:44;;;;;;;4.43;4.23;;;11.90;99.90;;;;;;5101937;28;20219;-81
2020/12/22 11:29:11;;;;;;;1.20;0.80;;;11.90;99.90;;;;;;5096624;28;20207;-79
2020/12/22 11:31:37;;;;;;;6.73;1.67;;;12.00;99.90;;;;;;5097331;28;20323;-80
2020/12/22 11:34:03;;;;;;;3.60;1.20;;;12.00;99.90;;;;;;5098054;28;20673;-81
2020/12/22 11:36:31;;;;;;;2.27;0.70;;;12.00;99.90;;;;;;5093997;27;20295;-80
2020/12/22 11:38:57;;;;;;;0.90;0.90;;;12.10;99.90;;;;;;5097587;28;20222;-80
2020/12/22 11:41:24;;;;;;;0.50;0.50;;;12.10;99.90;;;;;;5096445;28;20222;-81
2020/12/22 11:43:51;;;;;;;0.60;0.60;;;12.20;99.90;;;;;;5095249;28;20665;-83
2020/12/22 11:46:18;;;;;;;0.70;0.70;;;12.20;99.90;;;;;;5099790;28;20199;-80
2020/12/22 11:48:44;;;;;;;0.70;0.70;;;12.20;99.90;;;;;;5098561;28;20199;-79
2020/12/22 11:51:15;;;;;;;0.77;0.60;;;12.30;99.90;;;;;;5102437;28;20202;-82
2020/12/22 11:53:43;;;;;;;0.67;0.67;;;12.30;99.90;;;;;;5104934;28;20238;-79
2020/12/22 11:56:09;;;;;;;0.77;0.70;;;12.30;99.90;;;;;;5089906;28;20229;-79
2020/12/22 11:58:36;;;;;;;0.90;0.90;;;12.40;99.90;;;;;;5089406;28;20224;-79
2020/12/22 12:01:02;;;;;;;0.80;0.73;;;12.40;99.90;;;;;;5089985;28;20283;-79
2020/12/22 12:03:28;;;;;;;0.60;0.60;;;12.40;99.90;;;;;;5089997;28;20285;-79
2020/12/22 12:05:55;;;;;;;1.23;0.77;;;12.50;99.90;;;;;;5090175;28;20203;-79
2020/12/22 12:08:21;;;;;;;0.97;0.97;;;12.50;99.90;;;;;;5090199;28;20294;-79
2020/12/22 12:10:49;;;;;;;0.70;0.70;;;12.60;99.90;;;;;;5089783;28;20228;-80
2020/12/22 12:13:15;;;;;;;0.77;0.77;;;12.60;99.90;;;;;;5090106;28;20289;-79
2020/12/22 12:15:41;;;;;;;1.27;0.70;;;12.60;99.90;;;;;;5090137;28;20770;-79
2020/12/22 12:18:08;;;;;;;1.53;1.00;;;12.70;99.90;;;;;;5089895;28;20227;-79
2020/12/22 12:20:34;;;;;;;0.90;0.90;;;12.70;99.90;;;;;;5089562;28;20297;-78
2020/12/22 12:23:01;;;;;;;1.07;0.73;;;12.70;99.90;;;;;;5089582;28;20683;-79
2020/12/22 12:25:27;;;;;;;1.00;1.00;;;12.60;99.90;;;;;;5089908;28;20203;-79
2020/12/22 12:27:55;;;;;;;1.30;0.80;;;12.70;99.90;;;;;;5089760;28;20258;-79
2020/12/22 12:30:21;;;;;;;0.70;0.70;;;12.80;99.90;;;;;;5089709;28;20289;-79
2020/12/22 12:32:48;;;;;;;0.50;0.50;;;13.10;99.90;;;;;;5089982;28;20853;-80
2020/12/22 12:35:14;;;;;;;1.60;0.70;;;13.20;99.90;;;;;;5089819;28;20234;-80
2020/12/22 12:37:41;;;;;;;1.33;0.70;;;13.30;99.90;;;;;;5089492;28;20700;-79
2020/12/22 12:40:10;;;;;;;0.43;0.43;;;13.40;99.90;;;;;;5089704;28;20332;-79
2020/12/22 12:42:37;;;;;;;1.37;0.77;;;13.50;99.90;;;;;;5089296;28;20217;-78
2020/12/22 12:45:04;;;;;;;1.00;1.00;;;13.50;99.90;;;;;;5093415;28;20298;-80
2020/12/22 12:47:30;;;;;;;0.60;0.60;;;13.60;99.90;;;;;;5089453;28;20606;-80
2020/12/22 12:49:57;;;;;;;3.93;0.70;;;13.60;99.90;;;;;;5099536;28;20289;-80
2020/12/22 12:52:25;;;;;;;1.80;0.67;;;13.70;99.90;;;;;;5097040;28;20199;-80